createdAt,value
2022-12-23T00:01:39.333Z,14.48
2022-12-23T00:06:40.871Z,13.15
2022-12-23T00:12:02.307Z,14.98
2022-12-23T00:17:09.334Z,14.00
2022-12-23T00:22:41.737Z,13.95
2022-12-23T00:27:43.312Z,13.00
2022-12-23T00:32:44.812Z,14.68
2022-12-23T00:37:46.279Z,15.65
2022-12-23T00:42:53.452Z,13.43
2022-12-23T00:48:13.309Z,13.82
2022-12-23T00:53:14.776Z,11.75
2022-12-23T00:58:20.266Z,11.43
2022-12-23T01:03:40.271Z,10.35
2022-12-23T01:08:41.845Z,11.48
2022-12-23T01:13:43.322Z,9.77
2022-12-23T01:18:44.905Z,9.05
2022-12-23T01:23:46.468Z,9.00
2022-12-23T01:28:47.945Z,9.63
2022-12-23T01:33:49.458Z,8.32
2022-12-23T01:38:51.111Z,6.65
2022-12-23T01:43:52.583Z,5.75
2022-12-23T01:48:54.093Z,6.20
2022-12-23T01:53:58.865Z,5.80
2022-12-23T01:59:02.167Z,6.07
2022-12-23T02:04:09.155Z,5.80
2022-12-23T02:09:18.565Z,5.65
2022-12-23T02:20:04.132Z,6.38
2022-12-23T02:25:17.416Z,7.10
2022-12-23T02:30:27.967Z,6.53
2022-12-23T02:35:40.903Z,6.00
2022-12-23T02:40:51.540Z,5.68
2022-12-23T02:45:55.732Z,3.60
2022-12-23T02:50:57.222Z,3.30
2022-12-23T02:55:59.158Z,2.63
2022-12-23T03:01:00.674Z,2.13
2022-12-23T03:06:02.655Z,1.63
2022-12-23T03:11:08.520Z,1.15
2022-12-23T03:16:25.173Z,0.90
2022-12-23T03:21:46.528Z,1.15
2022-12-23T03:27:10.330Z,1.48
2022-12-23T03:32:12.785Z,0.82
2022-12-23T03:37:14.662Z,0.77
2022-12-23T03:42:29.057Z,0.73
2022-12-23T03:47:33.179Z,0.52
2022-12-23T03:52:37.610Z,0.90
2022-12-23T03:57:41.595Z,0.70
2022-12-23T04:02:53.765Z,0.52
2022-12-23T04:08:16.270Z,0.55
2022-12-23T04:18:19.152Z,1.40
2022-12-23T04:23:20.643Z,0.93
2022-12-23T04:28:22.126Z,0.80
2022-12-23T04:33:23.593Z,0.80
2022-12-23T04:38:25.072Z,0.80
2022-12-23T04:43:26.544Z,0.80
2022-12-23T04:48:28.003Z,1.23
2022-12-23T04:53:29.538Z,0.45
2022-12-23T04:58:31.008Z,0.80
2022-12-23T05:03:32.570Z,1.20
2022-12-23T05:08:34.233Z,0.70
2022-12-23T05:13:35.744Z,0.70
2022-12-23T05:18:37.208Z,0.60
2022-12-23T05:23:38.803Z,1.23
2022-12-23T05:28:40.369Z,0.50
2022-12-23T05:33:41.957Z,0.60
2022-12-23T05:38:43.487Z,0.73
2022-12-23T05:43:44.985Z,1.00
2022-12-23T05:48:46.514Z,1.33
2022-12-23T05:53:49.003Z,1.08
2022-12-23T05:58:50.461Z,0.80
2022-12-23T06:03:52.042Z,0.93
2022-12-23T06:08:59.398Z,1.83
2022-12-23T06:14:02.628Z,1.27
2022-12-23T06:19:04.113Z,0.70
2022-12-23T06:24:05.916Z,0.68
2022-12-23T06:29:07.407Z,1.00
2022-12-23T06:34:08.890Z,1.17
2022-12-23T06:39:10.576Z,0.98
2022-12-23T06:44:12.034Z,0.55
2022-12-23T06:49:14.067Z,0.35
2022-12-23T06:54:15.707Z,0.50
2022-12-23T06:59:17.169Z,0.50
2022-12-23T07:04:18.724Z,0.28
2022-12-23T07:09:20.196Z,0.40
2022-12-23T07:14:21.708Z,0.20
2022-12-23T07:19:23.674Z,0.22
2022-12-23T07:24:25.158Z,0.40
2022-12-23T07:29:26.631Z,0.40
2022-12-23T07:34:28.132Z,0.50
2022-12-23T07:39:29.654Z,0.57
2022-12-23T07:44:31.125Z,0.50
2022-12-23T07:49:32.595Z,0.57
2022-12-23T07:54:34.108Z,0.40
2022-12-23T07:59:35.584Z,0.47
2022-12-23T08:04:42.549Z,0.47
2022-12-23T08:09:47.191Z,0.80
2022-12-23T08:14:50.375Z,0.70
2022-12-23T08:19:51.841Z,0.43
2022-12-23T08:24:53.373Z,0.40
2022-12-23T08:29:54.860Z,0.65
2022-12-23T08:34:57.648Z,0.20
2022-12-23T08:39:59.142Z,0.57
2022-12-23T08:45:00.925Z,0.30
2022-12-23T08:50:02.697Z,0.77
2022-12-23T08:55:04.233Z,0.38
2022-12-23T09:00:06.369Z,0.32
2022-12-23T09:05:08.064Z,0.68
2022-12-23T09:10:09.673Z,0.43
2022-12-23T09:15:11.215Z,0.50
2022-12-23T09:20:12.711Z,0.30
2022-12-23T09:25:15.615Z,0.70
2022-12-23T09:30:17.215Z,0.52
2022-12-23T09:35:18.670Z,2.95
2022-12-23T09:40:20.565Z,2.90
2022-12-23T09:45:56.359Z,1.60
2022-12-23T09:50:57.964Z,1.92
2022-12-23T09:56:02.204Z,0.50
2022-12-23T10:01:18.539Z,0.30
2022-12-23T10:06:22.125Z,0.40
2022-12-23T10:11:38.026Z,0.30
2022-12-23T10:16:41.317Z,0.30
2022-12-23T10:21:48.244Z,0.25
2022-12-23T10:26:53.999Z,0.30
2022-12-23T10:32:17.816Z,0.30
2022-12-23T10:37:31.139Z,0.52
2022-12-23T10:43:11.773Z,0.90
2022-12-23T10:48:25.300Z,0.63
2022-12-23T10:53:43.635Z,0.50
2022-12-23T10:58:45.993Z,1.00
2022-12-23T11:04:14.963Z,0.70
2022-12-23T11:09:24.078Z,0.40
2022-12-23T11:14:41.437Z,0.47
2022-12-23T11:19:42.943Z,0.50
2022-12-23T11:24:44.411Z,0.40
2022-12-23T11:29:51.832Z,0.60
2022-12-23T11:34:53.875Z,0.47
2022-12-23T11:39:55.361Z,0.38
2022-12-23T11:44:58.222Z,0.25
2022-12-23T11:50:01.563Z,0.50
2022-12-23T11:55:04.033Z,0.30
2022-12-23T12:00:07.163Z,0.32
2022-12-23T12:05:37.233Z,0.45
2022-12-23T12:10:39.199Z,0.47
2022-12-23T12:15:44.753Z,0.60
2022-12-23T12:20:48.759Z,0.93
2022-12-23T12:25:52.720Z,0.50
2022-12-23T12:30:57.857Z,0.30
2022-12-23T12:36:15.872Z,0.25
2022-12-23T12:41:22.433Z,0.60
2022-12-23T12:46:39.672Z,0.50
2022-12-23T12:51:54.481Z,1.13
2022-12-23T12:56:56.564Z,0.50
2022-12-23T13:02:19.628Z,0.70
2022-12-23T13:07:53.238Z,0.50
2022-12-23T13:13:03.854Z,0.40
2022-12-23T13:18:36.505Z,0.52
2022-12-23T13:23:44.020Z,0.90
2022-12-23T13:28:59.767Z,0.77
2022-12-23T13:34:29.454Z,1.00
2022-12-23T13:39:39.833Z,1.20
2022-12-23T13:44:41.312Z,0.80
2022-12-23T13:49:55.263Z,0.95
2022-12-23T13:54:59.511Z,0.70
2022-12-23T14:00:06.175Z,0.88
2022-12-23T14:05:30.558Z,0.63
2022-12-23T14:10:32.023Z,0.80
2022-12-23T14:15:47.073Z,0.90
2022-12-23T14:20:50.855Z,1.13
2022-12-23T14:26:27.422Z,2.08
2022-12-23T14:31:40.553Z,1.15
2022-12-23T14:36:42.125Z,0.70
2022-12-23T14:41:50.856Z,1.00
2022-12-23T14:46:53.008Z,0.77
2022-12-23T14:51:54.487Z,0.88
2022-12-23T14:57:00.361Z,0.68
2022-12-23T15:02:03.239Z,0.55
2022-12-23T15:07:06.629Z,0.93
2022-12-23T15:12:13.681Z,0.80
2022-12-23T15:17:28.449Z,0.82
2022-12-23T15:22:32.931Z,0.50
2022-12-23T15:27:35.583Z,0.80
2022-12-23T15:32:37.038Z,1.58
2022-12-23T15:37:38.507Z,0.90
2022-12-23T15:42:39.979Z,0.57
2022-12-23T15:47:42.967Z,0.70
2022-12-23T15:52:45.426Z,0.98
2022-12-23T15:57:50.381Z,0.70
2022-12-23T16:03:02.344Z,0.93
2022-12-23T16:08:19.353Z,1.10
2022-12-23T16:13:25.369Z,0.90
2022-12-23T16:18:31.572Z,0.85
2022-12-23T16:23:34.709Z,1.10
2022-12-23T16:33:43.724Z,1.25
2022-12-23T16:38:45.214Z,1.27
2022-12-23T16:43:51.904Z,0.98
2022-12-23T16:48:55.424Z,1.40
2022-12-23T16:53:57.391Z,1.10
2022-12-23T16:58:58.937Z,0.98
2022-12-23T17:04:00.503Z,1.02
2022-12-23T17:09:02.126Z,0.88
2022-12-23T17:14:07.882Z,1.13
2022-12-23T17:19:12.000Z,1.23
2022-12-23T17:24:23.744Z,0.95
2022-12-23T17:29:25.265Z,0.82
2022-12-23T17:34:26.772Z,1.23
2022-12-23T17:39:28.234Z,1.67
2022-12-23T17:44:29.842Z,1.40
2022-12-23T17:49:31.293Z,1.20
2022-12-23T17:54:32.805Z,0.93
2022-12-23T17:59:34.262Z,1.10
2022-12-23T18:04:35.724Z,1.38
2022-12-23T18:09:37.334Z,1.10
2022-12-23T18:14:38.816Z,1.00
2022-12-23T18:19:40.282Z,1.88
2022-12-23T18:24:41.897Z,1.08
2022-12-23T18:29:43.760Z,1.30
2022-12-23T18:34:45.244Z,1.20
2022-12-23T18:39:46.761Z,1.52
2022-12-23T18:44:48.458Z,1.30
2022-12-23T18:49:49.947Z,1.58
2022-12-23T18:54:53.344Z,0.98
2022-12-23T18:59:54.813Z,1.13
2022-12-23T19:04:56.307Z,1.63
2022-12-23T19:09:57.782Z,1.20
2022-12-23T19:14:59.292Z,1.25
2022-12-23T19:20:00.782Z,1.60
2022-12-23T19:25:06.760Z,1.13
2022-12-23T19:30:09.145Z,1.20
2022-12-23T19:35:13.787Z,1.17
2022-12-23T19:40:15.260Z,1.60
2022-12-23T19:45:17.117Z,1.85
2022-12-23T19:50:19.678Z,1.42
2022-12-23T19:55:21.166Z,1.00
2022-12-23T20:00:22.636Z,0.93
2022-12-23T20:05:24.154Z,1.65
2022-12-23T20:10:25.639Z,0.98
2022-12-23T20:15:27.180Z,1.23
2022-12-23T20:20:28.678Z,1.33
2022-12-23T20:25:30.180Z,1.73
2022-12-23T20:30:31.666Z,1.25
2022-12-23T20:35:33.177Z,1.45
2022-12-23T20:40:34.648Z,1.05
2022-12-23T20:45:36.122Z,1.17
2022-12-23T20:50:39.891Z,1.60
2022-12-23T20:55:41.408Z,1.08
2022-12-23T21:00:42.887Z,0.98
2022-12-23T21:05:44.379Z,1.17
2022-12-23T21:10:52.555Z,1.30
2022-12-23T21:15:54.189Z,1.35
2022-12-23T21:21:02.728Z,2.97
2022-12-23T21:26:09.266Z,0.90
2022-12-23T21:31:10.831Z,1.20
2022-12-23T21:36:19.818Z,1.38
2022-12-23T21:41:23.417Z,1.23
2022-12-23T21:46:25.076Z,1.65
2022-12-23T21:51:33.343Z,1.13
2022-12-23T21:56:38.443Z,1.30
2022-12-23T22:01:40.490Z,1.40
2022-12-23T22:06:44.245Z,1.33
2022-12-23T22:11:46.256Z,1.20
2022-12-23T22:16:47.804Z,1.42
2022-12-23T22:21:49.399Z,1.40
2022-12-23T22:26:50.887Z,1.20
2022-12-23T22:31:53.217Z,1.42
2022-12-23T22:36:54.844Z,1.25
2022-12-23T22:41:56.323Z,1.35
2022-12-23T22:46:57.779Z,1.45
2022-12-23T22:51:59.266Z,1.33
2022-12-23T22:57:00.736Z,4.88
2022-12-23T23:02:02.215Z,1.40
2022-12-23T23:07:03.739Z,1.38
2022-12-23T23:12:05.338Z,1.67
2022-12-23T23:17:06.924Z,1.52
2022-12-23T23:22:08.413Z,1.25
2022-12-23T23:27:09.933Z,1.48
2022-12-23T23:32:11.516Z,1.60
2022-12-23T23:37:14.150Z,1.95
2022-12-23T23:42:17.774Z,1.90
2022-12-23T23:47:19.291Z,1.77
2022-12-23T23:52:20.775Z,2.45
2022-12-23T23:57:22.228Z,2.42
